createdAt,value
2018-11-01T00:00:19.675Z,85.80
2018-11-01T00:02:55.343Z,85.70
2018-11-01T00:05:30.240Z,85.50
2018-11-01T00:08:05.901Z,85.30
2018-11-01T00:10:40.888Z,85.10
2018-11-01T00:13:15.801Z,85.00
2018-11-01T00:15:50.905Z,84.90
2018-11-01T00:18:25.795Z,84.50
2018-11-01T00:21:01.169Z,84.60
2018-11-01T00:23:37.548Z,85.00
2018-11-01T00:26:12.874Z,85.00
2018-11-01T00:28:47.906Z,84.90
2018-11-01T00:31:24.294Z,85.00
2018-11-01T00:33:59.825Z,85.10
2018-11-01T00:36:35.155Z,85.30
2018-11-01T00:39:14.706Z,85.80
2018-11-01T00:41:54.113Z,86.70
2018-11-01T00:44:29.932Z,85.90
2018-11-01T00:47:06.116Z,86.30
2018-11-01T00:49:41.061Z,86.20
2018-11-01T00:52:16.085Z,86.10
2018-11-01T00:54:52.502Z,86.20
2018-11-01T00:57:27.697Z,86.00
2018-11-01T01:00:03.858Z,86.00
2018-11-01T01:02:43.409Z,86.10
2018-11-01T01:05:18.483Z,85.80
2018-11-01T01:07:53.568Z,85.80
2018-11-01T01:10:29.482Z,85.40
2018-11-01T01:13:04.432Z,85.30
2018-11-01T01:15:39.506Z,85.20
2018-11-01T01:18:14.980Z,85.10
2018-11-01T01:20:50.597Z,85.20
2018-11-01T01:23:26.012Z,85.40
2018-11-01T01:26:00.994Z,85.20
2018-11-01T01:28:35.877Z,85.10
2018-11-01T01:31:10.847Z,84.60
2018-11-01T01:33:46.017Z,84.60
2018-11-01T01:36:21.085Z,84.70
2018-11-01T01:38:56.906Z,84.70
2018-11-01T01:41:32.666Z,85.00
2018-11-01T01:44:08.343Z,85.20
2018-11-01T01:46:43.109Z,85.40
2018-11-01T01:49:18.821Z,85.60
2018-11-01T01:51:53.695Z,85.90
2018-11-01T01:54:31.027Z,85.70
2018-11-01T01:57:06.661Z,85.30
2018-11-01T01:59:42.167Z,84.40
2018-11-01T02:02:17.145Z,84.20
2018-11-01T02:04:52.073Z,83.10
2018-11-01T02:07:27.182Z,82.30
2018-11-01T02:10:02.134Z,81.80
2018-11-01T02:12:38.294Z,81.00
2018-11-01T02:15:15.531Z,80.90
2018-11-01T02:17:50.409Z,80.70
2018-11-01T02:20:25.457Z,80.50
2018-11-01T02:23:01.142Z,80.60
2018-11-01T02:25:36.128Z,80.40
2018-11-01T02:28:15.555Z,80.30
2018-11-01T02:30:50.531Z,80.50
2018-11-01T02:33:26.057Z,80.60
2018-11-01T02:36:01.392Z,80.50
2018-11-01T02:38:36.617Z,80.40
2018-11-01T02:41:11.638Z,80.90
2018-11-01T02:43:47.129Z,81.40
2018-11-01T02:46:23.245Z,81.60
2018-11-01T02:48:58.552Z,81.90
2018-11-01T02:51:33.762Z,82.40
2018-11-01T02:54:09.928Z,82.70
2018-11-01T02:56:46.474Z,82.80
2018-11-01T02:59:21.953Z,83.10
2018-11-01T03:01:57.708Z,83.30
2018-11-01T03:04:32.640Z,83.60
2018-11-01T03:07:07.766Z,83.80
2018-11-01T03:09:43.588Z,84.10
2018-11-01T03:12:18.987Z,84.60
2018-11-01T03:14:55.390Z,84.90
2018-11-01T03:17:31.171Z,85.60
2018-11-01T03:20:07.104Z,85.70
2018-11-01T03:22:42.485Z,85.90
2018-11-01T03:25:17.954Z,86.00
2018-11-01T03:27:53.355Z,86.10
2018-11-01T03:30:29.310Z,86.10
2018-11-01T03:33:04.446Z,85.90
2018-11-01T03:35:40.542Z,85.40
2018-11-01T03:38:16.972Z,85.10
2018-11-01T03:40:51.693Z,84.80
2018-11-01T03:43:28.313Z,84.60
2018-11-01T03:46:04.498Z,84.50
2018-11-01T03:48:40.186Z,84.50
2018-11-01T03:51:15.342Z,84.60
2018-11-01T03:53:52.032Z,84.20
2018-11-01T03:56:28.667Z,84.50
2018-11-01T03:59:05.050Z,84.50
2018-11-01T04:01:40.516Z,84.60
2018-11-01T04:04:16.010Z,85.00
2018-11-01T04:06:51.096Z,85.30
2018-11-01T04:09:26.219Z,85.20
2018-11-01T04:12:01.270Z,84.80
2018-11-01T04:14:36.220Z,85.00
2018-11-01T04:17:12.642Z,84.40
2018-11-01T04:19:48.888Z,84.30
2018-11-01T04:22:24.779Z,84.10
2018-11-01T04:24:59.724Z,83.60
2018-11-01T04:27:35.599Z,83.50
2018-11-01T04:30:10.637Z,83.80
2018-11-01T04:32:46.545Z,84.00
2018-11-01T04:35:22.271Z,84.40
2018-11-01T04:37:58.150Z,84.40
2018-11-01T04:40:35.226Z,84.30
2018-11-01T04:43:11.736Z,83.70
2018-11-01T04:45:46.677Z,84.30
2018-11-01T04:48:23.912Z,84.50
2018-11-01T04:51:00.873Z,84.70
2018-11-01T04:53:36.544Z,84.50
2018-11-01T04:56:11.581Z,84.50
2018-11-01T04:58:47.435Z,85.70
2018-11-01T05:01:23.573Z,84.70
2018-11-01T05:03:59.119Z,84.70
2018-11-01T05:06:34.874Z,84.90
2018-11-01T05:09:10.249Z,84.80
2018-11-01T05:11:45.222Z,84.60
2018-11-01T05:14:21.376Z,84.30
2018-11-01T05:16:56.322Z,84.70
2018-11-01T05:19:31.701Z,84.70
2018-11-01T05:22:07.371Z,84.20
2018-11-01T05:24:43.306Z,84.00
2018-11-01T05:27:18.570Z,84.10
2018-11-01T05:29:53.990Z,83.80
2018-11-01T05:32:29.089Z,83.50
2018-11-01T05:35:11.662Z,83.40
2018-11-01T05:37:46.851Z,83.40
2018-11-01T05:40:22.273Z,83.20
2018-11-01T05:42:58.530Z,83.70
2018-11-01T05:45:33.440Z,84.10
2018-11-01T05:48:08.876Z,84.10
2018-11-01T05:50:45.792Z,84.50
2018-11-01T05:53:21.616Z,84.70
2018-11-01T05:55:56.519Z,84.80
2018-11-01T05:58:32.884Z,84.90
2018-11-01T06:01:12.181Z,85.30
2018-11-01T06:03:47.708Z,84.90
2018-11-01T06:06:23.905Z,85.00
2018-11-01T06:08:59.747Z,84.80
2018-11-01T06:11:35.885Z,84.70
2018-11-01T06:14:10.870Z,85.00
2018-11-01T06:16:46.561Z,84.90
2018-11-01T06:19:23.315Z,85.00
2018-11-01T06:21:58.336Z,85.10
2018-11-01T06:24:33.296Z,85.20
2018-11-01T06:27:08.310Z,84.80
2018-11-01T06:29:44.895Z,85.10
2018-11-01T06:32:19.857Z,84.90
2018-11-01T06:34:58.916Z,84.90
2018-11-01T06:37:34.603Z,84.80
2018-11-01T06:40:09.721Z,84.60
2018-11-01T06:42:45.941Z,84.60
2018-11-01T06:45:20.799Z,84.40
2018-11-01T06:47:56.448Z,84.20
2018-11-01T06:50:31.573Z,83.90
2018-11-01T06:53:07.381Z,83.80
2018-11-01T06:55:43.953Z,83.60
2018-11-01T06:58:20.521Z,83.00
2018-11-01T07:00:55.929Z,82.80
2018-11-01T07:03:32.455Z,82.50
2018-11-01T07:06:08.512Z,82.40
2018-11-01T07:08:45.633Z,81.70
2018-11-01T07:11:21.497Z,81.10
2018-11-01T07:13:56.514Z,80.40
2018-11-01T07:16:31.462Z,79.90
2018-11-01T07:19:07.558Z,79.70
2018-11-01T07:21:47.953Z,79.40
2018-11-01T07:24:22.874Z,78.80
2018-11-01T07:26:58.331Z,78.80
2018-11-01T07:29:33.310Z,78.80
2018-11-01T07:32:09.089Z,78.60
2018-11-01T07:34:45.136Z,78.40
2018-11-01T07:37:21.147Z,78.70
2018-11-01T07:39:57.896Z,78.60
2018-11-01T07:42:32.829Z,78.80
2018-11-01T07:45:09.409Z,78.80
2018-11-01T07:47:44.925Z,78.80
2018-11-01T07:50:19.996Z,78.90
2018-11-01T07:52:56.497Z,78.90
2018-11-01T07:55:31.601Z,78.80
2018-11-01T07:58:06.875Z,78.90
2018-11-01T08:00:42.260Z,79.30
2018-11-01T08:03:17.729Z,79.60
2018-11-01T08:05:53.026Z,80.10
2018-11-01T08:08:27.928Z,80.50
2018-11-01T08:11:02.709Z,80.90
2018-11-01T08:13:38.684Z,81.30
2018-11-01T08:16:13.581Z,81.50
2018-11-01T08:18:49.101Z,81.80
2018-11-01T08:21:24.696Z,82.40
2018-11-01T08:24:00.273Z,82.70
2018-11-01T08:26:35.242Z,82.80
2018-11-01T08:29:10.363Z,82.70
2018-11-01T08:31:46.293Z,83.00
2018-11-01T08:34:21.465Z,82.80
2018-11-01T08:36:58.762Z,82.90
2018-11-01T08:39:34.780Z,82.90
2018-11-01T08:42:10.145Z,82.50
2018-11-01T08:44:45.856Z,82.40
2018-11-01T08:47:20.877Z,82.40
2018-11-01T08:49:55.997Z,82.10
2018-11-01T08:52:31.690Z,81.70
2018-11-01T08:55:07.906Z,81.60
2018-11-01T08:57:44.855Z,81.50
2018-11-01T09:00:19.808Z,81.50
2018-11-01T09:02:55.663Z,81.30
2018-11-01T09:05:30.768Z,81.10
2018-11-01T09:08:06.372Z,81.00
2018-11-01T09:10:43.331Z,81.10
2018-11-01T09:13:19.048Z,81.10
2018-11-01T09:15:54.693Z,81.00
2018-11-01T09:18:29.664Z,80.90
2018-11-01T09:21:05.269Z,80.40
2018-11-01T09:23:40.842Z,79.90
2018-11-01T09:26:16.496Z,79.90
2018-11-01T09:28:53.078Z,79.90
2018-11-01T09:31:28.312Z,79.80
2018-11-01T09:34:05.017Z,79.10
2018-11-01T09:36:41.337Z,78.80
2018-11-01T09:39:17.245Z,78.50
2018-11-01T09:41:52.848Z,78.40
2018-11-01T09:44:28.570Z,78.60
2018-11-01T09:47:05.051Z,78.80
2018-11-01T09:49:39.755Z,78.80
2018-11-01T09:52:15.144Z,78.70
2018-11-01T09:54:50.260Z,78.40
2018-11-01T09:57:25.424Z,78.30
2018-11-01T10:00:01.747Z,78.20
2018-11-01T10:02:37.501Z,78.30
2018-11-01T10:05:13.666Z,78.20
2018-11-01T10:07:49.467Z,78.30
2018-11-01T10:10:24.760Z,78.30
2018-11-01T10:13:00.250Z,78.10
2018-11-01T10:15:36.014Z,78.00
2018-11-01T10:18:12.828Z,77.60
2018-11-01T10:20:47.475Z,77.50
2018-11-01T10:23:23.789Z,77.30
2018-11-01T10:25:59.421Z,77.10
2018-11-01T10:28:35.120Z,76.10
2018-11-01T10:31:10.443Z,75.50
2018-11-01T10:33:46.022Z,75.00
2018-11-01T10:36:21.578Z,74.90
2018-11-01T10:38:57.372Z,74.40
2018-11-01T10:41:32.350Z,74.70
2018-11-01T10:44:07.510Z,74.40
2018-11-01T10:46:43.848Z,74.60
2018-11-01T10:49:20.251Z,74.30
2018-11-01T10:51:57.037Z,74.50
2018-11-01T10:54:31.905Z,74.40
2018-11-01T10:57:06.961Z,74.40
2018-11-01T10:59:41.970Z,74.50
2018-11-01T11:02:22.423Z,74.60
2018-11-01T11:04:57.505Z,74.40
2018-11-01T11:07:32.700Z,74.30
2018-11-01T11:10:08.257Z,74.30
2018-11-01T11:12:44.059Z,74.30
2018-11-01T11:15:18.989Z,74.20
2018-11-01T11:17:54.332Z,73.70
2018-11-01T11:20:29.451Z,73.10
2018-11-01T11:23:04.378Z,73.00
2018-11-01T11:25:39.278Z,72.00
2018-11-01T11:28:14.663Z,72.50
2018-11-01T11:30:49.458Z,71.90
2018-11-01T11:33:24.978Z,71.60
2018-11-01T11:36:01.094Z,71.20
2018-11-01T11:38:38.381Z,70.80
2018-11-01T11:41:13.908Z,70.70
2018-11-01T11:43:50.090Z,70.30
2018-11-01T11:46:26.948Z,69.80
2018-11-01T11:49:03.821Z,69.70
2018-11-01T11:51:39.074Z,69.60
2018-11-01T11:54:13.917Z,69.00
2018-11-01T11:56:49.736Z,69.50
2018-11-01T11:59:25.811Z,70.20
2018-11-01T12:02:01.090Z,70.00
2018-11-01T12:04:36.977Z,70.00
2018-11-01T12:07:12.054Z,69.80
2018-11-01T12:09:47.759Z,69.00
2018-11-01T12:12:23.420Z,68.40
2018-11-01T12:14:59.272Z,68.30
2018-11-01T12:17:36.580Z,68.00
2018-11-01T12:20:13.789Z,67.40
2018-11-01T12:22:48.913Z,67.30
2018-11-01T12:25:25.256Z,67.10
2018-11-01T12:28:00.821Z,66.90
2018-11-01T12:30:35.842Z,66.90
2018-11-01T12:33:10.967Z,67.20
2018-11-01T12:35:46.536Z,67.20
2018-11-01T12:38:21.690Z,67.10
2018-11-01T12:40:56.901Z,67.00
2018-11-01T12:43:32.441Z,66.80
2018-11-01T12:46:08.482Z,67.00
2018-11-01T12:48:48.064Z,67.10
2018-11-01T12:51:23.506Z,67.20
2018-11-01T12:53:58.840Z,67.00
2018-11-01T12:56:34.792Z,67.20
2018-11-01T12:59:10.820Z,67.00
2018-11-01T13:01:50.592Z,67.30
2018-11-01T13:04:25.833Z,67.30
2018-11-01T13:07:01.654Z,67.60
2018-11-01T13:09:37.825Z,68.10
2018-11-01T13:12:13.018Z,68.10
2018-11-01T13:14:48.907Z,67.80
2018-11-01T13:17:24.241Z,67.90
2018-11-01T13:19:59.360Z,67.80
2018-11-01T13:22:34.637Z,67.90
2018-11-01T13:25:10.806Z,69.20
2018-11-01T13:27:46.979Z,70.10
2018-11-01T13:30:26.378Z,70.80
2018-11-01T13:33:01.491Z,71.30
2018-11-01T13:35:36.667Z,71.60
2018-11-01T13:38:12.386Z,71.90
2018-11-01T13:40:48.071Z,71.80
2018-11-01T13:43:24.045Z,71.80
2018-11-01T13:46:00.653Z,71.60
2018-11-01T13:48:36.698Z,71.80
2018-11-01T13:51:12.045Z,71.70
2018-11-01T13:53:48.513Z,71.90
2018-11-01T13:56:24.163Z,72.30
2018-11-01T13:58:59.767Z,72.70
2018-11-01T14:01:35.547Z,72.90
2018-11-01T14:04:10.853Z,73.00
2018-11-01T14:06:47.097Z,73.10
2018-11-01T14:09:22.833Z,73.40
2018-11-01T14:11:58.000Z,73.80
2018-11-01T14:14:33.760Z,73.80
2018-11-01T14:17:09.341Z,74.00
2018-11-01T14:19:45.878Z,73.90
2018-11-01T14:22:21.781Z,74.00
2018-11-01T14:24:57.710Z,74.10
2018-11-01T14:27:33.540Z,73.90
2018-11-01T14:30:11.551Z,73.90
2018-11-01T14:32:52.390Z,73.50
2018-11-01T14:35:27.464Z,73.40
2018-11-01T14:38:03.044Z,73.30
2018-11-01T14:40:39.045Z,72.80
2018-11-01T14:43:15.361Z,72.50
2018-11-01T14:45:50.686Z,72.30
2018-11-01T14:48:26.874Z,72.30
2018-11-01T14:51:02.541Z,72.20
2018-11-01T14:53:38.878Z,72.10
2018-11-01T14:56:15.297Z,72.00
2018-11-01T14:58:50.615Z,72.30
2018-11-01T15:01:25.904Z,72.60
2018-11-01T15:04:01.033Z,72.80
2018-11-01T15:06:36.992Z,73.10
2018-11-01T15:09:13.434Z,73.50
2018-11-01T15:11:49.941Z,73.80
2018-11-01T15:14:26.598Z,74.00
2018-11-01T15:17:02.081Z,74.00
2018-11-01T15:19:37.761Z,74.00
2018-11-01T15:22:14.583Z,74.00
2018-11-01T15:24:49.797Z,73.80
2018-11-01T15:27:25.374Z,73.80
2018-11-01T15:30:00.502Z,73.90
2018-11-01T15:32:36.074Z,74.20
2018-11-01T15:35:11.323Z,74.20
2018-11-01T15:37:47.463Z,74.30
2018-11-01T15:40:22.612Z,74.40
2018-11-01T15:42:57.454Z,74.40
2018-11-01T15:45:32.668Z,74.60
2018-11-01T15:48:07.874Z,74.60
2018-11-01T15:50:43.421Z,74.60
2018-11-01T15:53:18.554Z,74.80
2018-11-01T15:55:53.470Z,74.60
2018-11-01T15:58:29.603Z,74.60
2018-11-01T16:01:05.297Z,74.50
2018-11-01T16:03:40.507Z,74.50
2018-11-01T16:06:15.640Z,74.30
2018-11-01T16:08:52.028Z,74.30
2018-11-01T16:18:26.163Z,74.50
2018-11-01T16:21:01.575Z,74.60
2018-11-01T16:23:37.143Z,75.00
2018-11-01T16:26:12.910Z,75.30
2018-11-01T16:28:48.689Z,75.30
2018-11-01T16:31:23.757Z,75.50
2018-11-01T16:33:59.427Z,75.90
2018-11-01T16:36:36.139Z,76.10
2018-11-01T16:39:12.843Z,77.30
2018-11-01T16:41:49.055Z,76.80
2018-11-01T16:44:24.893Z,77.10
2018-11-01T16:47:01.282Z,77.40
2018-11-01T16:49:37.228Z,77.70
2018-11-01T16:52:13.855Z,78.10
2018-11-01T16:54:53.852Z,78.20
2018-11-01T16:57:29.522Z,78.60
2018-11-01T17:00:06.152Z,78.90
2018-11-01T17:02:42.093Z,79.20
2018-11-01T17:05:17.253Z,79.40
2018-11-01T17:08:55.098Z,79.50
2018-11-01T17:11:30.741Z,79.90
2018-11-01T17:14:07.243Z,80.10
2018-11-01T17:16:42.370Z,80.30
2018-11-01T17:19:18.574Z,80.70
2018-11-01T17:21:53.876Z,80.90
2018-11-01T17:24:29.625Z,81.10
2018-11-01T17:27:05.238Z,81.10
2018-11-01T17:29:41.802Z,81.40
2018-11-01T17:32:16.932Z,81.40
2018-11-01T17:34:52.248Z,81.40
2018-11-01T17:37:28.562Z,81.20
2018-11-01T17:40:03.826Z,81.20
2018-11-01T17:42:39.653Z,81.20
2018-11-01T17:45:15.022Z,81.20
2018-11-01T17:47:51.156Z,81.20
2018-11-01T17:50:27.008Z,81.00
2018-11-01T17:53:02.848Z,80.90
2018-11-01T17:55:38.369Z,81.00
2018-11-01T17:58:13.415Z,80.70
2018-11-01T18:01:01.377Z,80.70
2018-11-01T18:03:45.784Z,80.50
2018-11-01T18:06:21.369Z,80.50
2018-11-01T18:08:57.004Z,80.80
2018-11-01T18:11:31.702Z,80.40
2018-11-01T18:14:06.894Z,80.30
2018-11-01T18:16:41.723Z,80.20
2018-11-01T18:19:16.750Z,80.40
2018-11-01T18:21:51.775Z,80.20
2018-11-01T18:24:26.827Z,80.10
2018-11-01T18:27:01.828Z,80.20
2018-11-01T18:29:37.948Z,80.10
2018-11-01T18:32:13.177Z,80.30
2018-11-01T18:34:49.103Z,80.40
2018-11-01T18:37:23.912Z,80.60
2018-11-01T18:39:58.779Z,80.80
2018-11-01T18:42:34.067Z,80.80
2018-11-01T18:45:10.698Z,81.10
2018-11-01T18:47:46.439Z,81.20
2018-11-01T18:50:26.567Z,81.40
2018-11-01T18:53:01.522Z,81.40
2018-11-01T18:55:37.084Z,81.50
2018-11-01T18:58:12.133Z,81.70
2018-11-01T19:00:47.925Z,82.10
2018-11-01T19:03:29.875Z,82.20
2018-11-01T19:06:05.927Z,82.30
2018-11-01T19:08:41.690Z,82.40
2018-11-01T19:11:17.142Z,82.50
2018-11-01T19:13:53.130Z,82.60
2018-11-01T19:16:28.078Z,82.90
2018-11-01T19:19:03.797Z,83.10
2018-11-01T19:21:38.939Z,83.60
2018-11-01T19:24:14.463Z,84.10
2018-11-01T19:26:49.407Z,84.50
2018-11-01T19:29:25.522Z,84.80
2018-11-01T19:32:01.229Z,85.50
2018-11-01T19:34:36.701Z,85.50
2018-11-01T19:37:11.436Z,86.20
2018-11-01T19:39:50.484Z,85.30
2018-11-01T19:42:25.447Z,85.10
2018-11-01T19:45:00.967Z,85.10
2018-11-01T19:47:36.590Z,84.90
2018-11-01T19:50:13.456Z,84.70
2018-11-01T19:52:49.873Z,84.80
2018-11-01T19:55:24.743Z,84.90
2018-11-01T19:57:59.697Z,84.90
2018-11-01T20:00:34.729Z,85.00
2018-11-01T20:03:10.393Z,85.10
2018-11-01T20:05:46.673Z,85.30
2018-11-01T20:08:22.027Z,85.60
2018-11-01T20:11:01.662Z,85.60
2018-11-01T20:13:39.249Z,86.00
2018-11-01T20:16:14.324Z,86.30
2018-11-01T20:18:49.615Z,86.50
2018-11-01T20:21:24.547Z,86.60
2018-11-01T20:23:59.565Z,86.90
2018-11-01T20:26:34.433Z,87.10
2018-11-01T20:29:09.438Z,87.30
2018-11-01T20:31:44.688Z,87.90
2018-11-01T20:34:19.685Z,88.00
2018-11-01T20:36:56.044Z,88.20
2018-11-01T20:39:32.287Z,88.60
2018-11-01T20:42:07.375Z,89.00
2018-11-01T20:44:42.526Z,89.00
2018-11-01T20:47:17.657Z,89.10
2018-11-01T20:49:52.471Z,89.30
2018-11-01T20:52:27.838Z,89.60
2018-11-01T20:55:03.603Z,90.00
2018-11-01T20:57:39.893Z,90.10
2018-11-01T21:00:15.574Z,90.30
2018-11-01T21:02:50.538Z,90.30
2018-11-01T21:05:25.631Z,90.50
2018-11-01T21:08:00.690Z,90.60
2018-11-01T21:10:35.680Z,90.60
2018-11-01T21:13:10.957Z,90.70
2018-11-01T21:15:47.714Z,90.70
2018-11-01T21:18:22.702Z,90.70
2018-11-01T21:20:58.634Z,90.90
2018-11-01T21:23:33.706Z,90.90
2018-11-01T21:26:08.743Z,91.00
2018-11-01T21:28:44.059Z,91.10
2018-11-01T21:31:18.888Z,91.20
2018-11-01T21:33:54.409Z,91.30
2018-11-01T21:36:29.610Z,91.30
2018-11-01T21:39:06.683Z,91.40
2018-11-01T21:41:42.462Z,91.40
2018-11-01T21:44:17.776Z,91.50
2018-11-01T21:46:52.860Z,91.60
2018-11-01T21:49:28.889Z,91.60
2018-11-01T21:52:04.105Z,91.60
2018-11-01T21:54:38.928Z,91.50
2018-11-01T21:57:16.766Z,91.60
2018-11-01T21:59:51.797Z,91.70
2018-11-01T22:02:26.992Z,91.60
2018-11-01T22:05:02.128Z,91.60
2018-11-01T22:07:37.908Z,91.50
2018-11-01T22:10:13.689Z,91.50
2018-11-01T22:12:48.657Z,91.50
2018-11-01T22:15:24.096Z,91.50
2018-11-01T22:18:00.275Z,91.40
2018-11-01T22:20:35.633Z,91.30
2018-11-01T22:23:10.899Z,91.30
2018-11-01T22:25:51.277Z,91.30
2018-11-01T22:28:26.672Z,91.20
2018-11-01T22:31:01.644Z,91.20
2018-11-01T22:33:36.571Z,91.20
2018-11-01T22:36:11.749Z,91.10
2018-11-01T22:38:47.023Z,91.30
2018-11-01T22:41:22.020Z,91.30
2018-11-01T22:43:58.234Z,91.30
2018-11-01T22:46:33.325Z,91.30
2018-11-01T22:49:11.069Z,91.30
2018-11-01T22:51:47.028Z,91.20
2018-11-01T22:54:22.833Z,91.20
2018-11-01T22:56:59.290Z,91.10
2018-11-01T22:59:34.513Z,91.00
2018-11-01T23:02:09.620Z,91.00
2018-11-01T23:04:44.828Z,91.00
2018-11-01T23:07:19.817Z,91.10
2018-11-01T23:09:55.247Z,91.10
2018-11-01T23:12:30.356Z,91.10
2018-11-01T23:15:06.488Z,91.10
2018-11-01T23:17:42.724Z,91.10
2018-11-01T23:20:18.281Z,91.00
2018-11-01T23:22:53.313Z,91.00
2018-11-01T23:25:29.040Z,91.00
2018-11-01T23:28:04.260Z,91.00
2018-11-01T23:30:39.308Z,91.00
2018-11-01T23:33:14.653Z,91.00
2018-11-01T23:35:50.247Z,90.90
2018-11-01T23:38:30.392Z,91.00
2018-11-01T23:41:11.194Z,91.00
2018-11-01T23:43:55.752Z,91.10
2018-11-01T23:46:40.117Z,91.10
2018-11-01T23:49:18.907Z,91.10
2018-11-01T23:51:58.947Z,91.10
2018-11-01T23:54:34.069Z,91.20
2018-11-01T23:57:09.471Z,91.30
2018-11-01T23:59:48.882Z,91.30
